Time;durP1;ratioP1;P1;durP2;ratioP2;P2;SDS_P1;SDS_P2;PMS_P1;PMS_P2;Temp;Humidity;BMP_temperature;BMP_pressure;BME280_temperature;BME280_humidity;BME280_pressure;Samples;Min_cycle;Max_cycle;Signal;HPM_P1;HPM_P2
2022/02/21 00:00:57;;;;;;;1999.90;999.90;;;;;;;6.15;53.69;98550.50;5023249;28;97242;-73
2022/02/21 00:03:27;;;;;;;1999.90;999.90;;;;;;;6.18;53.50;98551.38;5021691;27;97806;-73
2022/02/21 00:05:55;;;;;;;1999.90;999.90;;;;;;;6.18;53.59;98540.81;5025305;28;98292;-72
2022/02/21 00:08:23;;;;;;;1999.90;999.90;;;;;;;6.17;53.22;98532.91;5024396;28;97728;-72
2022/02/21 00:10:51;;;;;;;1999.90;999.90;;;;;;;6.21;53.12;98519.69;5024415;27;97843;-73
2022/02/21 00:13:18;;;;;;;1999.90;999.90;;;;;;;6.22;53.47;98555.81;5023307;27;97918;-72
2022/02/21 00:15:46;;;;;;;1999.90;999.90;;;;;;;6.25;53.06;98500.34;5024752;28;98375;-73
2022/02/21 00:18:14;;;;;;;1999.90;999.90;;;;;;;6.25;53.45;98510.91;5022951;28;99413;-73
2022/02/21 00:20:43;;;;;;;1999.90;999.90;;;;;;;6.26;53.06;98488.03;5024954;27;98800;-77
2022/02/21 00:23:11;;;;;;;1999.90;999.90;;;;;;;6.27;53.03;98495.09;5025707;27;97696;-72
2022/02/21 00:25:39;;;;;;;1999.90;999.90;;;;;;;6.25;53.46;98454.56;5024798;28;97782;-75
2022/02/21 00:28:09;;;;;;;1999.90;999.90;;;;;;;6.22;53.32;98459.84;5017163;28;99398;-73
2022/02/21 00:30:36;;;;;;;1999.90;999.90;;;;;;;6.21;53.27;98455.47;5021542;27;97529;-73
2022/02/21 00:33:04;;;;;;;1999.90;999.90;;;;;;;6.23;53.07;98428.16;5021256;28;98532;-76
2022/02/21 00:35:33;;;;;;;1999.90;999.90;;;;;;;6.23;53.19;98459.84;5019551;28;97576;-76
2022/02/21 00:38:02;;;;;;;1999.90;999.90;;;;;;;6.21;53.24;98405.31;5018025;28;99947;-76
2022/02/21 00:40:31;;;;;;;1999.90;999.90;;;;;;;6.25;53.30;98405.28;5018063;27;98337;-76
2022/02/21 00:42:58;;;;;;;1999.90;999.90;;;;;;;6.21;53.35;98402.66;5017217;27;97866;-76
2022/02/21 00:45:26;;;;;;;1999.90;999.90;;;;;;;6.25;53.03;98421.13;5015708;27;98522;-74
2022/02/21 00:47:54;;;;;;;1999.90;999.90;;;;;;;6.20;53.02;98385.03;5017900;28;99362;-73
2022/02/21 00:50:22;;;;;;;1999.90;999.90;;;;;;;6.23;53.39;98361.31;5022227;27;97697;-76
2022/02/21 00:52:51;;;;;;;1999.90;999.90;;;;;;;6.26;52.90;98377.13;5020073;27;97640;-76
2022/02/21 00:55:21;;;;;;;1999.90;999.90;;;;;;;6.23;53.06;98359.53;5016665;27;99557;-75
2022/02/21 00:57:48;;;;;;;1999.90;999.90;;;;;;;6.25;52.66;98360.41;5019842;28;99004;-74
2022/02/21 01:00:17;;;;;;;1999.90;999.90;;;;;;;6.27;53.03;98347.22;5018358;28;97962;-74
2022/02/21 01:02:45;;;;;;;1999.90;999.90;;;;;;;6.31;52.69;98350.75;5019603;28;99888;-76
2022/02/21 01:05:13;;;;;;;1999.90;999.90;;;;;;;6.27;53.14;98331.38;5016001;27;99443;-76
2022/02/21 01:07:41;;;;;;;1999.90;999.90;;;;;;;6.30;52.72;98335.78;5016768;27;100249;-74
2022/02/21 01:10:09;;;;;;;1999.90;999.90;;;;;;;6.30;52.91;98349.00;5014241;28;97039;-73
2022/02/21 01:12:39;;;;;;;1999.90;999.90;;;;;;;6.33;52.70;98328.75;5018502;27;97981;-74
2022/02/21 01:15:08;;;;;;;1999.90;999.90;;;;;;;6.30;52.51;98339.31;5019386;28;98013;-75
2022/02/21 01:17:36;;;;;;;1999.90;999.90;;;;;;;6.37;52.38;98324.34;5024409;27;98697;-74
2022/02/21 01:20:06;;;;;;;1999.90;999.90;;;;;;;6.33;52.41;98323.47;5023933;27;97212;-75
2022/02/21 01:22:35;;;;;;;1999.90;999.90;;;;;;;6.37;52.39;98313.78;5022830;28;97004;-73
2022/02/21 01:25:03;;;;;;;1999.90;999.90;;;;;;;6.40;52.19;98341.06;5024368;28;97808;-75
2022/02/21 01:27:30;;;;;;;1999.90;999.90;;;;;;;6.44;52.14;98331.38;5021656;27;100285;-75
2022/02/21 01:30:00;;;;;;;1999.90;999.90;;;;;;;6.47;52.28;98348.09;5038373;27;97070;-73
2022/02/21 01:32:28;;;;;;;1999.90;999.90;;;;;;;6.44;52.07;98363.06;5020539;28;97841;-75
2022/02/21 01:34:55;;;;;;;1999.90;999.90;;;;;;;6.47;52.05;98363.09;5020196;28;100390;-75
2022/02/21 01:37:23;;;;;;;1999.90;999.90;;;;;;;6.51;52.36;98400.03;5024930;28;98235;-74
2022/02/21 01:39:50;;;;;;;1999.90;999.90;;;;;;;6.56;52.02;98442.31;5024161;28;97313;-74
2022/02/21 01:42:18;;;;;;;1999.90;999.90;;;;;;;6.57;52.05;98470.47;5023310;28;97011;-74
2022/02/21 01:44:48;;;;;;;1999.90;999.90;;;;;;;6.58;52.22;98552.38;5023802;27;99113;-74
2022/02/21 01:47:18;;;;;;;1999.90;999.90;;;;;;;6.02;57.66;98557.50;5024988;28;98093;-74
2022/02/21 01:49:46;;;;;;;1999.90;999.90;;;;;;;8.01;100.00;98589.31;5021910;27;96929;-75
2022/02/21 01:52:15;;;;;;;1999.90;999.90;;;;;;;12.13;75.00;98505.41;5024660;27;97762;-73
2022/02/21 01:54:43;;;;;;;1999.90;999.90;;;;;;;5.49;67.36;98537.88;5023182;28;99199;-74
2022/02/21 01:57:11;;;;;;;1999.90;999.90;;;;;;;5.14;66.11;98535.03;5022107;27;100357;-72
2022/02/21 01:59:40;;;;;;;1999.90;999.90;;;;;;;5.07;63.55;98534.97;5023672;28;97134;-72
2022/02/21 02:02:09;;;;;;;1999.90;999.90;;;;;;;4.85;63.48;98512.81;5022677;27;97763;-73
2022/02/21 02:04:38;;;;;;;1999.90;999.90;;;;;;;4.41;63.88;98510.69;5020527;27;97625;-74
2022/02/21 02:07:06;;;;;;;1999.90;999.90;;;;;;;4.36;63.95;98484.31;5023053;28;99764;-73
2022/02/21 02:09:34;;;;;;;1999.90;999.90;;;;;;;4.13;65.22;98536.72;5023867;27;97160;-74
2022/02/21 02:12:02;;;;;;;1999.90;999.90;;;;;;;3.89;63.94;98520.69;5023544;27;98082;-73
2022/02/21 02:14:30;;;;;;;1999.90;999.90;;;;;;;3.77;62.99;98538.94;5024280;28;97848;-74
2022/02/21 02:17:01;;;;;;;1999.90;999.90;;;;;;;3.69;62.65;98506.41;5021777;27;97563;-73
2022/02/21 02:19:29;;;;;;;1999.90;999.90;;;;;;;3.82;62.40;98553.03;5022493;28;96906;-73
2022/02/21 02:22:05;;;;;;;1999.90;999.90;;;;;;;3.86;60.47;98510.09;5025926;27;96852;-73
2022/02/21 02:24:35;;;;;;;1999.90;999.90;;;;;;;3.81;61.02;98555.63;5022770;28;98575;-73
2022/02/21 02:27:02;;;;;;;1999.90;999.90;;;;;;;3.78;60.22;98535.44;5025221;28;98672;-74
2022/02/21 02:29:30;;;;;;;1999.90;999.90;;;;;;;3.82;59.70;98546.88;5025094;27;98389;-72
2022/02/21 02:31:58;;;;;;;1999.90;999.90;;;;;;;3.88;58.67;98568.88;5024821;28;96856;-71
2022/02/21 02:34:25;;;;;;;1999.90;999.90;;;;;;;3.98;57.63;98573.41;5025356;28;97658;-73
2022/02/21 02:36:53;;;;;;;1999.90;999.90;;;;;;;4.09;56.45;98555.09;5023240;28;99493;-73
2022/02/21 02:39:23;;;;;;;1999.90;999.90;;;;;;;4.19;55.52;98578.91;5025088;28;97226;-73
2022/02/21 02:41:52;;;;;;;1999.90;999.90;;;;;;;4.29;54.44;98560.56;5022355;28;96791;-74
2022/02/21 02:44:20;;;;;;;1999.90;999.90;;;;;;;4.32;53.77;98581.69;5022095;28;98040;-73
2022/02/21 02:46:48;;;;;;;1999.90;999.90;;;;;;;4.04;54.09;98577.84;5021656;27;97542;-74
2022/02/21 02:49:16;;;;;;;1999.90;999.90;;;;;;;4.06;53.61;98574.34;5003052;28;98433;-73
2022/02/21 02:51:44;;;;;;;1999.90;999.90;;;;;;;4.09;53.41;98584.06;5010339;28;98560;-74
2022/02/21 02:54:11;;;;;;;1999.90;999.90;;;;;;;4.14;53.35;98541.13;5023225;27;98965;-73
2022/02/21 02:56:42;;;;;;;1999.90;999.90;;;;;;;4.14;53.31;98562.19;5021413;28;97740;-72
2022/02/21 02:59:10;;;;;;;1999.90;999.90;;;;;;;4.09;53.28;98574.41;5023462;28;96726;-73
2022/02/21 03:01:39;;;;;;;1999.90;999.90;;;;;;;4.05;53.24;98554.19;5018608;27;98705;-74
2022/02/21 03:04:07;;;;;;;1999.90;999.90;;;;;;;3.96;53.57;98579.50;5018898;27;101426;-74
2022/02/21 03:06:35;;;;;;;1999.90;999.90;;;;;;;3.93;54.10;98597.88;5002353;28;98864;-75
2022/02/21 03:09:04;;;;;;;1999.90;999.90;;;;;;;3.84;53.84;98603.91;5022549;27;97551;-74
2022/02/21 03:11:32;;;;;;;1999.90;999.90;;;;;;;3.87;53.64;98588.16;5021807;27;96951;-74
2022/02/21 03:14:01;;;;;;;1999.90;999.90;;;;;;;3.87;53.69;98596.06;5026348;28;97549;-73
2022/02/21 03:16:29;;;;;;;1999.90;999.90;;;;;;;3.76;53.24;98583.63;5020996;27;98529;-71
2022/02/21 03:18:56;;;;;;;1999.90;999.90;;;;;;;3.67;58.05;98589.66;5024743;28;96853;-73
2022/02/21 03:21:24;;;;;;;1999.90;999.90;;;;;;;3.77;54.11;98620.47;5024172;28;97125;-73
2022/02/21 03:23:52;;;;;;;1999.90;999.90;;;;;;;3.75;53.92;98593.25;5024599;27;98591;-73
2022/02/21 03:26:20;;;;;;;1999.90;999.90;;;;;;;3.64;53.81;98594.81;5022831;27;100173;-73
2022/02/21 03:28:47;;;;;;;1999.90;999.90;;;;;;;3.54;54.05;98619.22;5021456;27;97429;-71
2022/02/21 03:31:17;;;;;;;1999.90;999.90;;;;;;;3.50;54.04;98613.88;5019858;28;98595;-72
2022/02/21 03:33:45;;;;;;;1999.90;999.90;;;;;;;3.50;53.77;98614.78;5021638;28;97201;-74
2022/02/21 03:36:13;;;;;;;1999.90;999.90;;;;;;;3.48;54.00;98608.63;5003487;28;99192;-73
2022/02/21 03:38:42;;;;;;;1999.90;999.90;;;;;;;3.42;54.01;98634.84;5022781;27;98450;-73
2022/02/21 03:41:10;;;;;;;1999.90;999.90;;;;;;;3.44;54.09;98648.00;5023221;28;98879;-73
2022/02/21 03:43:38;;;;;;;1999.90;999.90;;;;;;;3.42;53.91;98657.59;5022635;27;98167;-74
2022/02/21 03:46:06;;;;;;;1999.90;999.90;;;;;;;3.48;53.61;98670.84;5020037;28;99565;-74
2022/02/21 03:48:35;;;;;;;1999.90;999.90;;;;;;;3.45;53.79;98665.53;5023836;28;96791;-74
2022/02/21 03:51:03;;;;;;;1999.90;999.90;;;;;;;3.36;53.66;98657.50;5021073;28;96843;-74
2022/02/21 03:53:31;;;;;;;1999.90;999.90;;;;;;;3.27;53.22;98671.38;5020839;27;99210;-73
2022/02/21 03:55:58;;;;;;;1999.90;999.90;;;;;;;3.15;52.97;98661.53;5015464;28;98306;-73
2022/02/21 03:58:26;;;;;;;1999.90;999.90;;;;;;;3.07;52.93;98688.56;5014761;28;98015;-74
2022/02/21 04:00:54;;;;;;;1999.90;999.90;;;;;;;2.93;53.31;98680.41;5014260;28;96941;-74
2022/02/21 04:03:22;;;;;;;1999.90;999.90;;;;;;;2.80;53.04;98706.44;5014247;27;97806;-75
2022/02/21 04:05:51;;;;;;;1999.90;999.90;;;;;;;2.65;53.24;98661.50;5015245;28;98933;-74
2022/02/21 04:08:22;;;;;;;1999.90;999.90;;;;;;;2.69;53.38;98666.84;5015043;27;97357;-74
2022/02/21 04:10:50;;;;;;;1999.90;999.90;;;;;;;2.65;53.71;98648.38;5021462;28;99788;-74
2022/02/21 04:13:18;;;;;;;1999.90;999.90;;;;;;;2.63;53.81;98668.47;5022735;27;97725;-75
2022/02/21 04:15:46;;;;;;;1999.90;999.90;;;;;;;2.59;53.82;98678.03;5003664;28;99552;-74
2022/02/21 04:18:14;;;;;;;1999.90;999.90;;;;;;;2.54;53.10;98726.03;5018421;28;96996;-73
2022/02/21 04:20:41;;;;;;;1999.90;999.90;;;;;;;2.51;53.32;98697.13;5019602;27;97060;-74
2022/02/21 04:23:10;;;;;;;1999.90;999.90;;;;;;;2.44;53.55;98703.97;5020755;27;99233;-73
2022/02/21 04:25:38;;;;;;;1999.90;999.90;;;;;;;2.47;53.07;98718.91;5018617;28;100589;-72
2022/02/21 04:28:06;;;;;;;1999.90;999.90;;;;;;;2.40;52.54;98728.38;5021954;28;97152;-73
2022/02/21 04:30:34;;;;;;;1999.90;999.90;;;;;;;2.42;52.55;98763.41;5024141;28;98489;-74
2022/02/21 04:33:01;;;;;;;1999.90;999.90;;;;;;;2.38;52.52;98744.97;5025358;28;97632;-73
2022/02/21 04:35:29;;;;;;;1999.90;999.90;;;;;;;2.24;52.58;98770.03;5024014;27;97841;-72
2022/02/21 04:37:57;;;;;;;1999.90;999.90;;;;;;;2.10;52.91;98807.31;5021124;28;98811;-74
2022/02/21 04:40:29;;;;;;;1999.90;999.90;;;;;;;2.01;53.07;98775.59;5022390;27;97467;-73
2022/02/21 04:42:57;;;;;;;1999.90;999.90;;;;;;;1.93;53.15;98773.63;5025148;27;97931;-74
2022/02/21 04:45:29;;;;;;;1999.90;999.90;;;;;;;1.79;52.67;98793.41;5040044;27;100377;-74
2022/02/21 04:47:57;;;;;;;1999.90;999.90;;;;;;;1.76;52.86;98802.06;5024960;28;96803;-74
2022/02/21 04:50:25;;;;;;;1999.90;999.90;;;;;;;1.65;52.12;98810.53;5022547;27;99498;-74
2022/02/21 04:52:53;;;;;;;1999.90;999.90;;;;;;;1.59;52.77;98813.00;5022346;27;97639;-73
2022/02/21 04:55:21;;;;;;;1999.90;999.90;;;;;;;1.47;52.89;98805.72;5038925;27;97527;-74
2022/02/21 04:57:50;;;;;;;1999.90;999.90;;;;;;;1.52;53.09;98803.22;5024113;28;98052;-73
2022/02/21 05:00:18;;;;;;;1999.90;999.90;;;;;;;1.47;52.65;98803.09;5024482;27;97531;-74
2022/02/21 05:02:46;;;;;;;1999.90;999.90;;;;;;;1.46;52.67;98838.00;4997063;28;100479;-73
2022/02/21 05:05:14;;;;;;;1999.90;999.90;;;;;;;1.45;52.68;98828.34;5014790;28;99057;-73
2022/02/21 05:07:43;;;;;;;1999.90;999.90;;;;;;;1.40;53.11;98814.25;5016077;28;98072;-74
2022/02/21 05:10:11;;;;;;;1999.90;999.90;;;;;;;1.35;52.87;98810.63;5016122;27;97823;-74
2022/02/21 05:12:39;;;;;;;1999.90;999.90;;;;;;;1.28;53.17;98821.81;5019655;27;97594;-72
2022/02/21 05:15:10;;;;;;;1999.90;999.90;;;;;;;1.24;53.04;98838.28;5023624;28;97601;-72
2022/02/21 05:17:39;;;;;;;1999.90;999.90;;;;;;;1.23;53.13;98807.72;5022929;28;96786;-74
2022/02/21 05:20:09;;;;;;;1999.90;999.90;;;;;;;1.20;52.45;98816.38;5023533;28;98412;-73
2022/02/21 05:22:37;;;;;;;1999.90;999.90;;;;;;;1.18;53.05;98817.16;5002002;28;99333;-73
2022/02/21 05:25:06;;;;;;;1999.90;999.90;;;;;;;1.17;53.35;98799.69;5019662;28;98147;-74
2022/02/21 05:27:35;;;;;;;1999.90;999.90;;;;;;;1.09;52.81;98811.66;5018567;28;97627;-74
2022/02/21 05:30:03;;;;;;;1999.90;999.90;;;;;;;1.08;53.39;98820.38;5016651;28;97581;-74
2022/02/21 05:32:32;;;;;;;1999.90;999.90;;;;;;;1.04;53.24;98813.28;5017038;27;99279;-72
2022/02/21 05:35:01;;;;;;;1999.90;999.90;;;;;;;1.01;52.85;98821.06;5018602;27;99348;-73
2022/02/21 05:37:29;;;;;;;1999.90;999.90;;;;;;;0.98;53.30;98819.25;5022509;27;97846;-72
2022/02/21 05:39:56;;;;;;;1999.90;999.90;;;;;;;0.93;52.96;98840.91;5010508;28;98296;-73
2022/02/21 05:42:24;;;;;;;1999.90;999.90;;;;;;;0.92;53.19;98829.53;5009433;28;99227;-73
2022/02/21 05:44:52;;;;;;;1999.90;999.90;;;;;;;0.87;53.17;98846.84;5024316;27;97747;-73
2022/02/21 05:47:20;;;;;;;1999.90;999.90;;;;;;;0.81;53.25;98851.03;5022989;28;97101;-73
2022/02/21 05:49:49;;;;;;;1999.90;999.90;;;;;;;0.80;53.17;98837.06;5023059;28;99022;-72
2022/02/21 05:52:16;;;;;;;1999.90;999.90;;;;;;;0.79;53.14;98879.78;5025379;28;98788;-72
2022/02/21 05:54:44;;;;;;;1999.90;999.90;;;;;;;0.75;53.28;98885.78;5014530;28;97688;-74
2022/02/21 05:57:13;;;;;;;1999.90;999.90;;;;;;;0.75;52.99;98866.56;5004078;28;96779;-72
2022/02/21 05:59:41;;;;;;;1999.90;999.90;;;;;;;0.71;52.91;98885.63;5017642;27;98375;-72
2022/02/21 06:02:08;;;;;;;1999.90;999.90;;;;;;;0.70;53.31;98879.53;5016579;28;97663;-74
2022/02/21 06:04:36;;;;;;;1999.90;999.90;;;;;;;0.65;53.03;98895.94;5015149;28;98496;-73
2022/02/21 06:07:05;;;;;;;1999.90;999.90;;;;;;;0.66;52.81;98882.88;5014161;28;98139;-73
2022/02/21 06:09:33;;;;;;;1999.90;999.90;;;;;;;0.62;53.06;98901.94;5018236;27;97237;-73
2022/02/21 06:12:01;;;;;;;1999.90;999.90;;;;;;;0.65;52.86;98920.34;5020007;28;98934;-74
2022/02/21 06:14:29;;;;;;;1999.90;999.90;;;;;;;0.59;53.09;98948.06;5026444;27;97450;-72
2022/02/21 06:16:56;;;;;;;1999.90;999.90;;;;;;;0.58;53.40;98915.75;5026179;27;97117;-70
2022/02/21 06:19:24;;;;;;;1999.90;999.90;;;;;;;0.50;53.28;98932.09;5023991;28;97545;-76
2022/02/21 06:21:52;;;;;;;1999.90;999.90;;;;;;;0.49;53.46;98917.19;5025046;28;99192;-73
2022/02/21 06:24:21;;;;;;;1999.90;999.90;;;;;;;0.44;53.46;98931.88;5026045;27;97390;-73
2022/02/21 06:26:49;;;;;;;1999.90;999.90;;;;;;;0.34;53.47;98938.53;5024015;28;96859;-72
2022/02/21 06:29:17;;;;;;;1999.90;999.90;;;;;;;0.33;53.35;98935.88;5001278;28;98359;-73
2022/02/21 06:31:44;;;;;;;1999.90;999.90;;;;;;;0.23;53.57;98946.00;5021926;27;98209;-72
2022/02/21 06:34:12;;;;;;;1999.90;999.90;;;;;;;0.21;53.82;98976.44;5040666;27;98184;-72
2022/02/21 06:36:40;;;;;;;1999.90;999.90;;;;;;;0.18;54.03;98950.22;5022765;28;96738;-73
2022/02/21 06:39:08;;;;;;;1999.90;999.90;;;;;;;0.10;53.84;98983.03;5022750;27;97361;-73
2022/02/21 06:41:37;;;;;;;1999.90;999.90;;;;;;;0.11;53.96;98989.16;5023321;28;97795;-72
2022/02/21 06:44:05;;;;;;;1999.90;999.90;;;;;;;0.12;53.95;98991.84;5022378;28;99589;-73
2022/02/21 06:46:33;;;;;;;1999.90;999.90;;;;;;;0.05;54.53;98986.34;5024856;28;96765;-73
2022/02/21 06:49:01;;;;;;;1999.90;999.90;;;;;;;0.03;54.46;99007.22;5023696;27;97241;-74
2022/02/21 06:51:30;;;;;;;1999.90;999.90;;;;;;;0.04;54.11;99022.06;5023909;27;98481;-72
2022/02/21 06:53:58;;;;;;;1999.90;999.90;;;;;;;0.10;53.83;99030.09;5007677;28;97988;-72
2022/02/21 06:56:26;;;;;;;1999.90;999.90;;;;;;;-0.34;55.18;99059.03;5024887;28;96824;-72
2022/02/21 06:58:55;;;;;;;1999.90;999.90;;;;;;;-0.40;57.82;99074.47;5024187;28;97763;-72
2022/02/21 07:01:23;;;;;;;1999.90;999.90;;;;;;;-0.55;100.00;99076.50;5025007;28;97334;-73
2022/02/21 07:03:51;;;;;;;1999.90;999.90;;;;;;;-1.21;100.00;99066.03;5039947;27;97896;-72
2022/02/21 07:06:18;;;;;;;1999.90;999.90;;;;;;;-1.28;100.00;99066.63;5025028;27;98146;-73
2022/02/21 07:08:46;;;;;;;1999.90;999.90;;;;;;;-1.33;100.00;99068.16;4882367;28;4183115;-72
2022/02/21 07:11:14;;;;;;;1999.90;999.90;;;;;;;-1.22;95.42;99073.00;5027611;27;97773;-73
2022/02/21 07:13:42;;;;;;;1999.90;999.90;;;;;;;-1.26;72.70;99059.75;5024155;28;97526;-73
2022/02/21 07:16:11;;;;;;;1999.90;999.90;;;;;;;-1.12;67.52;99059.47;5024981;27;96928;-73
2022/02/21 07:18:39;;;;;;;1999.90;999.90;;;;;;;-1.10;65.39;99077.81;5025585;27;97597;-73
2022/02/21 07:21:07;;;;;;;1999.90;999.90;;;;;;;-1.12;61.87;99071.63;5023971;28;99259;-74
2022/02/21 07:23:36;;;;;;;1999.90;999.90;;;;;;;-1.19;61.49;99094.00;5025999;27;98871;-73
2022/02/21 07:26:04;;;;;;;1999.90;999.90;;;;;;;-1.31;61.08;99082.16;5025403;28;97287;-73
2022/02/21 07:28:31;;;;;;;1999.90;999.90;;;;;;;-1.31;60.92;99087.38;5007776;28;96851;-74
2022/02/21 07:30:59;;;;;;;1999.90;999.90;;;;;;;-1.45;61.11;99083.34;5008234;28;99854;-73
2022/02/21 07:33:28;;;;;;;1999.90;999.90;;;;;;;-1.49;61.25;99089.25;5023196;27;97866;-73
2022/02/21 07:35:56;;;;;;;1999.90;999.90;;;;;;;-1.50;61.00;99097.88;5024307;27;97526;-73
2022/02/21 07:38:24;;;;;;;1999.90;999.90;;;;;;;-1.42;60.02;99092.16;5024187;28;97772;-73
2022/02/21 07:40:52;;;;;;;1999.90;999.90;;;;;;;-1.38;59.89;99098.41;5023484;28;100732;-73
2022/02/21 07:43:20;;;;;;;1999.90;999.90;;;;;;;-1.34;59.56;99095.09;5023322;28;97920;-72
2022/02/21 07:45:48;;;;;;;1999.90;999.90;;;;;;;-1.27;59.55;99125.81;5023215;28;97598;-71
2022/02/21 07:48:16;;;;;;;1999.90;999.90;;;;;;;-1.28;59.02;99088.41;5022347;27;97136;-73
2022/02/21 07:50:45;;;;;;;1999.90;999.90;;;;;;;-1.18;58.77;99074.00;5023416;28;99674;-72
2022/02/21 07:53:12;;;;;;;1999.90;999.90;;;;;;;-1.08;58.80;99099.63;5024289;27;98921;-73
2022/02/21 07:55:40;;;;;;;1999.90;999.90;;;;;;;-1.09;57.91;99090.03;5025013;28;98408;-73
2022/02/21 07:58:08;;;;;;;1999.90;999.90;;;;;;;-0.98;57.63;99099.19;5025177;27;97373;-74
2022/02/21 08:00:36;;;;;;;1999.90;999.90;;;;;;;-0.87;57.55;99140.53;5023347;27;100736;-73
2022/02/21 08:03:04;;;;;;;1999.90;999.90;;;;;;;-0.78;57.43;99111.31;5023120;27;98526;-72
2022/02/21 08:05:34;;;;;;;1999.90;999.90;;;;;;;-0.70;56.69;99111.59;5025969;28;96928;-75
2022/02/21 08:08:03;;;;;;;1999.90;999.90;;;;;;;-0.64;57.09;99112.72;5027054;28;97381;-74
2022/02/21 08:10:31;;;;;;;1999.90;999.90;;;;;;;-0.58;56.50;99112.97;5027837;28;97482;-74
2022/02/21 08:12:59;;;;;;;1999.90;999.90;;;;;;;-0.39;56.32;99125.00;5009533;28;98160;-72
2022/02/21 08:15:27;;;;;;;1999.90;999.90;;;;;;;-0.36;56.54;99131.25;5043488;27;96906;-74
2022/02/21 08:17:55;;;;;;;1999.90;999.90;;;;;;;-0.28;56.00;99149.81;5026206;28;97591;-73
2022/02/21 08:20:26;;;;;;;1999.90;999.90;;;;;;;-0.27;55.95;99152.50;5027553;28;97817;-71
2022/02/21 08:22:54;;;;;;;1999.90;999.90;;;;;;;-0.21;55.89;99141.38;5028174;27;97990;-75
2022/02/21 08:25:23;;;;;;;1999.90;999.90;;;;;;;-0.19;55.84;99151.03;5025665;28;96797;-74
2022/02/21 08:27:52;;;;;;;1999.90;999.90;;;;;;;-0.16;55.61;99150.28;5028315;27;97336;-72
2022/02/21 08:30:21;;;;;;;1999.90;999.90;;;;;;;-0.15;55.78;99144.19;5027578;28;97669;-72
2022/02/21 08:32:49;;;;;;;1999.90;999.90;;;;;;;-0.14;55.75;99179.97;5025083;28;98806;-72
2022/02/21 08:35:17;;;;;;;1999.90;999.90;;;;;;;-0.15;55.44;99154.66;5026772;28;97531;-72
2022/02/21 08:37:45;;;;;;;1999.90;999.90;;;;;;;-0.15;55.40;99150.31;5027485;28;96958;-71
2022/02/21 08:40:14;;;;;;;1999.90;999.90;;;;;;;-0.20;55.33;99123.13;5032297;27;96825;-72
2022/02/21 08:42:45;;;;;;;1999.90;999.90;;;;;;;-0.27;55.18;99152.50;5026152;28;99538;-72
2022/02/21 08:45:13;;;;;;;1999.90;999.90;;;;;;;-0.13;55.00;99151.28;5024661;28;97312;-71
2022/02/21 08:47:42;;;;;;;1999.90;999.90;;;;;;;-0.09;55.03;99173.19;5027413;28;97215;-72
2022/02/21 08:50:11;;;;;;;1999.90;999.90;;;;;;;-0.16;55.29;99145.94;5026251;28;97892;-71
2022/02/21 08:52:40;;;;;;;1999.90;999.90;;;;;;;-0.21;55.14;99154.44;5026265;28;99389;-72
2022/02/21 08:55:08;;;;;;;1999.90;999.90;;;;;;;-0.23;55.42;99149.13;5026519;28;97455;-71
2022/02/21 08:57:36;;;;;;;1999.90;999.90;;;;;;;-0.23;54.93;99204.00;5026180;28;96818;-72
2022/02/21 09:00:09;;;;;;;1999.90;999.90;;;;;;;-0.11;55.04;99154.84;5026005;27;100487;-72
2022/02/21 09:02:36;;;;;;;1999.90;999.90;;;;;;;-0.04;54.60;99214.34;5025590;28;97667;-72
2022/02/21 09:05:25;;;;;;;1999.90;999.90;;;;;;;-0.11;54.69;99149.63;5026238;27;97727;-71
2022/02/21 09:07:53;;;;;;;1999.90;999.90;;;;;;;0.02;53.74;99212.00;5025256;28;96755;-71
2022/02/21 09:10:21;;;;;;;1999.90;999.90;;;;;;;-0.02;54.32;99162.13;5027032;27;97684;-71
2022/02/21 09:12:49;;;;;;;1999.90;999.90;;;;;;;0.04;54.59;99158.03;5011037;28;100835;-72
2022/02/21 09:15:21;;;;;;;1999.90;999.90;;;;;;;0.15;54.74;99180.22;5029279;27;97252;-72
2022/02/21 09:17:48;;;;;;;1999.90;999.90;;;;;;;0.14;54.05;99178.44;5029594;28;97127;-72
2022/02/21 09:20:16;;;;;;;1999.90;999.90;;;;;;;0.22;54.03;99176.09;5029167;28;97604;-73
2022/02/21 09:22:44;;;;;;;1999.90;999.90;;;;;;;0.25;54.05;99193.69;5029238;27;97543;-73
2022/02/21 09:25:12;;;;;;;1999.90;999.90;;;;;;;0.29;53.53;99187.69;5016377;28;97332;-72
2022/02/21 09:27:41;;;;;;;1999.90;999.90;;;;;;;0.34;53.29;99160.00;5033318;28;96762;-71
2022/02/21 09:30:10;;;;;;;1999.90;999.90;;;;;;;0.40;53.35;99168.94;5032529;28;99656;-71
2022/02/21 09:32:39;;;;;;;1999.90;999.90;;;;;;;0.47;52.84;99178.78;5033480;27;102104;-72
2022/02/21 09:35:07;;;;;;;1999.90;999.90;;;;;;;0.47;52.54;99188.34;5034286;28;97105;-71
2022/02/21 09:37:36;;;;;;;1999.90;999.90;;;;;;;0.55;53.08;99192.16;5031709;28;96851;-72
2022/02/21 09:40:05;;;;;;;1999.90;999.90;;;;;;;0.61;52.45;99163.59;5028150;28;96720;-74
2022/02/21 09:42:33;;;;;;;1999.90;999.90;;;;;;;0.59;52.46;99176.63;5028439;28;97561;-73
2022/02/21 09:45:01;;;;;;;1999.90;999.90;;;;;;;0.65;52.72;99179.44;5030547;28;96804;-74
2022/02/21 09:47:29;;;;;;;1999.90;999.90;;;;;;;0.64;51.90;99197.69;5027940;28;96916;-73
2022/02/21 09:50:00;;;;;;;1999.90;999.90;;;;;;;0.72;52.13;99159.63;5027523;27;98223;-73
2022/02/21 09:52:29;;;;;;;1999.90;999.90;;;;;;;0.79;52.70;99183.44;5026896;27;99824;-73
2022/02/21 09:54:59;;;;;;;1999.90;999.90;;;;;;;0.73;52.02;99214.63;5027382;28;96721;-73
2022/02/21 09:57:28;;;;;;;1999.90;999.90;;;;;;;0.79;51.92;99175.59;5026470;28;97251;-73
2022/02/21 09:59:56;;;;;;;1999.90;999.90;;;;;;;0.78;51.62;99171.16;5043586;27;99282;-74
2022/02/21 10:02:29;;;;;;;1999.90;999.90;;;;;;;0.77;52.38;99190.34;5025805;27;97592;-72
2022/02/21 10:05:12;;;;;;;1999.90;999.90;;;;;;;0.73;51.46;99192.78;5025470;28;97954;-73
2022/02/21 10:07:40;;;;;;;1999.90;999.90;;;;;;;0.78;51.44;99202.59;5024730;28;97344;-73
2022/02/21 10:10:09;;;;;;;1999.90;999.90;;;;;;;0.82;52.13;99235.00;5025590;28;99669;-73
2022/02/21 10:12:47;;;;;;;1999.90;999.90;;;;;;;0.86;49.60;99192.38;5025389;27;98820;-73
2022/02/21 10:15:18;;;;;;;1999.90;999.90;;;;;;;0.87;51.59;99196.75;5023759;28;97330;-74
2022/02/21 10:17:47;;;;;;;1999.90;999.90;;;;;;;0.85;52.17;99245.59;5024477;28;97476;-73
2022/02/21 10:20:18;;;;;;;1999.90;999.90;;;;;;;0.88;51.55;99195.94;5025230;27;99567;-74
2022/02/21 10:23:02;;;;;;;1999.90;999.90;;;;;;;0.87;50.84;99215.97;5027193;27;97546;-73
2022/02/21 10:25:34;;;;;;;1999.90;999.90;;;;;;;0.87;51.62;99217.69;5025317;28;97412;-74
2022/02/21 10:28:02;;;;;;;1999.90;999.90;;;;;;;0.87;51.24;99200.28;5025500;28;97171;-74
2022/02/21 10:30:29;;;;;;;1999.90;999.90;;;;;;;0.90;51.88;99197.78;5024395;27;98006;-74
2022/02/21 10:33:12;;;;;;;1999.90;999.90;;;;;;;0.86;51.52;99208.09;5024939;27;99454;-74
2022/02/21 10:35:41;;;;;;;1999.90;999.90;;;;;;;0.86;51.09;99226.41;5024144;28;96807;-73
2022/02/21 10:38:09;;;;;;;1999.90;999.90;;;;;;;0.87;51.40;99247.41;5026377;28;97062;-74
2022/02/21 10:40:38;;;;;;;1999.90;999.90;;;;;;;0.87;50.80;99243.88;5025762;28;97516;-73
2022/02/21 10:43:09;;;;;;;1999.90;999.90;;;;;;;0.85;51.41;99212.41;5023543;27;98010;-74
2022/02/21 10:45:38;;;;;;;1999.90;999.90;;;;;;;0.79;51.24;99245.38;5025694;28;96573;-74
2022/02/21 10:48:07;;;;;;;1999.90;999.90;;;;;;;0.84;50.95;99236.84;5026815;27;97062;-74
2022/02/21 10:50:54;;;;;;;1999.90;999.90;;;;;;;0.90;51.33;99217.84;5026429;27;99093;-73
2022/02/21 10:53:23;;;;;;;1999.90;999.90;;;;;;;0.91;51.32;99238.81;5028354;27;98370;-74
2022/02/21 10:55:52;;;;;;;1999.90;999.90;;;;;;;0.93;51.14;99221.44;5023957;27;97319;-73
2022/02/21 10:58:20;;;;;;;1999.90;999.90;;;;;;;0.88;49.58;99211.66;5024417;28;96771;-73
2022/02/21 11:00:49;;;;;;;1999.90;999.90;;;;;;;0.92;50.61;99206.56;5023997;28;99250;-74
2022/02/21 11:03:18;;;;;;;1999.90;999.90;;;;;;;0.93;50.03;99228.41;5006492;28;97781;-72
2022/02/21 11:05:48;;;;;;;1999.90;999.90;;;;;;;0.93;50.46;99207.44;5023003;28;97349;-72